createdAt,value
2023-03-08T00:03:44.891Z,20.18
2023-03-08T00:07:44.791Z,20.16
2023-03-08T00:11:44.763Z,20.16
2023-03-08T00:15:44.758Z,20.13
2023-03-08T00:19:44.688Z,20.13
2023-03-08T00:23:44.644Z,20.03
2023-03-08T00:27:44.626Z,20.01
2023-03-08T00:31:44.683Z,20.01
2023-03-08T00:35:44.636Z,20.00
2023-03-08T00:39:44.648Z,20.00
2023-03-08T00:43:44.655Z,19.97
2023-03-08T00:47:44.677Z,19.99
2023-03-08T00:51:44.642Z,19.94
2023-03-08T00:55:44.618Z,19.94
2023-03-08T00:59:44.601Z,19.91
2023-03-08T01:03:44.628Z,19.87
2023-03-08T01:07:44.634Z,19.82
2023-03-08T01:11:44.632Z,19.82
2023-03-08T01:15:44.599Z,19.83
2023-03-08T01:19:44.666Z,19.79
2023-03-08T01:23:44.650Z,19.80
2023-03-08T01:27:44.668Z,19.80
2023-03-08T01:31:44.746Z,19.79
2023-03-08T01:35:44.797Z,19.80
2023-03-08T01:39:44.807Z,19.77
2023-03-08T01:43:44.856Z,19.70
2023-03-08T01:47:44.911Z,19.66
2023-03-08T01:51:44.953Z,19.66
2023-03-08T01:55:44.996Z,19.63
2023-03-08T01:59:45.034Z,19.59
2023-03-08T02:03:45.092Z,19.58
2023-03-08T02:07:45.168Z,19.55
2023-03-08T02:11:45.152Z,19.52
2023-03-08T02:15:45.149Z,19.48
2023-03-08T02:19:45.215Z,19.49
2023-03-08T02:23:45.217Z,19.49
2023-03-08T02:27:45.289Z,19.45
2023-03-08T02:31:45.367Z,19.46
2023-03-08T02:35:45.377Z,19.48
2023-03-08T02:39:45.392Z,19.45
2023-03-08T02:43:45.414Z,19.44
2023-03-08T02:47:45.523Z,19.39
2023-03-08T02:51:45.519Z,19.39
2023-03-08T02:55:45.634Z,19.35
2023-03-08T02:59:45.727Z,19.36
2023-03-08T03:03:45.893Z,19.34
2023-03-08T03:07:45.874Z,19.32
2023-03-08T03:11:46.572Z,19.31
2023-03-08T03:15:46.126Z,19.25
2023-03-08T03:19:46.216Z,19.21
2023-03-08T03:23:46.331Z,19.25
2023-03-08T03:27:46.423Z,19.22
2023-03-08T03:31:46.544Z,19.17
2023-03-08T03:35:46.720Z,19.17
2023-03-08T03:39:46.857Z,19.15
2023-03-08T03:43:46.998Z,19.17
2023-03-08T03:47:47.109Z,19.17
2023-03-08T03:51:47.269Z,19.15
2023-03-08T03:55:47.423Z,19.14
2023-03-08T03:59:47.552Z,19.11
2023-03-08T04:03:47.784Z,19.10
2023-03-08T04:07:47.890Z,19.08
2023-03-08T04:11:48.076Z,19.08
2023-03-08T04:15:48.373Z,19.03
2023-03-08T04:19:48.396Z,19.03
2023-03-08T04:23:48.561Z,18.99
2023-03-08T04:27:48.772Z,19.06
2023-03-08T04:31:48.969Z,19.00
2023-03-08T04:35:49.215Z,18.96
2023-03-08T04:39:49.342Z,19.00
2023-03-08T04:43:49.569Z,18.93
2023-03-08T04:47:49.749Z,18.93
2023-03-08T04:51:49.969Z,18.91
2023-03-08T04:55:50.184Z,18.89
2023-03-08T04:59:50.385Z,18.91
2023-03-08T05:03:50.627Z,18.90
2023-03-08T05:07:50.615Z,18.89
2023-03-08T05:11:50.566Z,18.83
2023-03-08T05:15:50.507Z,18.83
2023-03-08T05:19:50.477Z,18.84
2023-03-08T05:23:50.455Z,18.83
2023-03-08T05:27:50.406Z,18.82
2023-03-08T05:31:50.467Z,18.80
2023-03-08T05:35:50.498Z,18.79
2023-03-08T05:39:50.315Z,18.70
2023-03-08T05:43:50.402Z,18.67
2023-03-08T05:47:50.537Z,18.69
2023-03-08T05:51:50.727Z,18.69
2023-03-08T05:55:50.662Z,18.84
2023-03-08T05:59:50.648Z,18.99
2023-03-08T06:03:50.617Z,19.08
2023-03-08T06:07:50.596Z,19.15
2023-03-08T06:11:50.554Z,19.25
2023-03-08T06:15:50.510Z,19.29
2023-03-08T06:19:50.494Z,19.35
2023-03-08T06:23:50.488Z,19.41
2023-03-08T06:27:50.377Z,19.49
2023-03-08T06:31:50.335Z,19.51
2023-03-08T06:35:50.366Z,19.61
2023-03-08T06:39:50.772Z,19.79
2023-03-08T06:43:50.230Z,20.00
2023-03-08T06:47:50.235Z,20.29
2023-03-08T06:51:50.280Z,20.49
2023-03-08T06:55:50.270Z,20.80
2023-03-08T06:59:50.270Z,21.13
2023-03-08T07:03:50.285Z,21.46
2023-03-08T07:07:50.447Z,21.72
2023-03-08T07:11:50.640Z,21.95
2023-03-08T07:15:51.321Z,22.14
2023-03-08T07:19:50.907Z,22.32
2023-03-08T07:23:50.958Z,22.42
2023-03-08T07:27:50.968Z,22.54
2023-03-08T07:31:51.044Z,22.62
2023-03-08T07:35:51.051Z,22.68
2023-03-08T07:39:51.293Z,22.72
2023-03-08T07:43:51.014Z,22.70
2023-03-08T07:47:51.286Z,22.79
2023-03-08T07:51:51.283Z,22.83
2023-03-08T07:55:51.387Z,22.89
2023-03-08T07:59:53.413Z,22.87
2023-03-08T08:03:51.880Z,23.11
2023-03-08T08:07:51.281Z,23.54
2023-03-08T08:11:51.299Z,24.28
2023-03-08T08:15:51.216Z,24.50
2023-03-08T08:19:51.184Z,24.25
2023-03-08T08:23:51.123Z,24.13
2023-03-08T08:27:51.089Z,24.42
2023-03-08T08:31:51.099Z,24.04
2023-03-08T08:35:51.367Z,23.99
2023-03-08T08:39:51.035Z,23.93
2023-03-08T08:43:51.288Z,23.83
2023-03-08T08:47:51.310Z,23.75
2023-03-08T08:51:50.870Z,23.62
2023-03-08T08:55:50.854Z,23.55
2023-03-08T08:59:50.810Z,23.47
2023-03-08T09:03:50.849Z,23.42
2023-03-08T09:07:51.330Z,23.35
2023-03-08T09:11:55.517Z,23.31
2023-03-08T09:15:51.171Z,23.30
2023-03-08T09:19:51.192Z,23.25
2023-03-08T09:23:51.329Z,23.20
2023-03-08T09:27:51.345Z,23.17
2023-03-08T09:31:51.359Z,23.17
2023-03-08T09:35:51.383Z,23.18
2023-03-08T09:39:51.343Z,23.11
2023-03-08T09:43:51.366Z,23.13
2023-03-08T09:47:51.186Z,23.11
2023-03-08T09:51:51.353Z,23.15
2023-03-08T09:55:51.360Z,23.17
2023-03-08T09:59:51.357Z,23.18
2023-03-08T10:03:51.053Z,23.14
2023-03-08T10:07:51.341Z,23.17
2023-03-08T10:11:51.164Z,23.18
2023-03-08T10:15:51.091Z,23.21
2023-03-08T10:19:51.330Z,23.20
2023-03-08T10:23:51.030Z,23.20
2023-03-08T10:27:51.011Z,23.18
2023-03-08T10:31:50.957Z,23.21
2023-03-08T10:35:51.365Z,23.18
2023-03-08T10:39:50.860Z,23.23
2023-03-08T10:43:50.836Z,23.17
2023-03-08T10:47:51.511Z,23.30
2023-03-08T10:51:51.349Z,23.35
2023-03-08T10:55:51.394Z,23.35
2023-03-08T10:59:51.554Z,23.35
2023-03-08T11:03:51.745Z,23.32
2023-03-08T11:07:52.392Z,23.31
2023-03-08T11:11:52.153Z,23.32
2023-03-08T11:15:52.387Z,23.30
2023-03-08T11:19:52.866Z,23.32
2023-03-08T11:23:52.798Z,23.34
2023-03-08T11:27:53.106Z,23.34
2023-03-08T11:31:53.205Z,23.32
2023-03-08T11:35:53.922Z,23.37
2023-03-08T11:39:53.869Z,23.35
2023-03-08T11:43:53.884Z,23.48
2023-03-08T11:47:53.882Z,23.49
2023-03-08T11:51:54.027Z,23.47
2023-03-08T11:55:54.138Z,23.49
2023-03-08T11:59:54.425Z,23.49
2023-03-08T12:03:54.562Z,23.48
2023-03-08T12:07:54.590Z,23.49
2023-03-08T12:11:54.696Z,23.51
2023-03-08T12:15:54.941Z,23.51
2023-03-08T12:19:55.019Z,23.49
2023-03-08T12:23:55.195Z,23.48
2023-03-08T12:27:55.294Z,23.49
2023-03-08T12:31:55.508Z,23.51
2023-03-08T12:35:55.981Z,23.54
2023-03-08T12:39:55.567Z,23.57
2023-03-08T12:43:55.645Z,23.55
2023-03-08T12:47:55.745Z,23.64
2023-03-08T12:51:55.728Z,23.78
2023-03-08T12:55:55.763Z,23.79
2023-03-08T12:59:55.763Z,23.78
2023-03-08T13:03:55.831Z,23.78
2023-03-08T13:07:55.898Z,23.69
2023-03-08T13:11:56.017Z,23.65
2023-03-08T13:15:56.109Z,23.65
2023-03-08T13:19:56.237Z,23.62
2023-03-08T13:23:56.283Z,23.65
2023-03-08T13:27:56.397Z,23.65
2023-03-08T13:31:56.409Z,23.64
2023-03-08T13:35:56.530Z,23.66
2023-03-08T13:39:56.536Z,23.66
2023-03-08T13:43:56.715Z,23.68
2023-03-08T13:47:56.653Z,23.69
2023-03-08T13:51:56.710Z,23.72
2023-03-08T13:55:56.811Z,23.69
2023-03-08T13:59:56.968Z,23.69
2023-03-08T14:03:56.936Z,23.70
2023-03-08T14:07:56.974Z,23.72
2023-03-08T14:11:57.018Z,23.68
2023-03-08T14:15:57.163Z,23.64
2023-03-08T14:19:57.257Z,23.64
2023-03-08T14:23:57.313Z,23.64
2023-03-08T14:27:57.300Z,23.62
2023-03-08T14:31:57.517Z,23.61
2023-03-08T14:35:57.453Z,23.61
2023-03-08T14:39:57.943Z,23.59
2023-03-08T14:43:57.551Z,23.55
2023-03-08T14:47:57.634Z,23.58
2023-03-08T14:51:57.705Z,23.59
2023-03-08T14:55:57.799Z,23.57
2023-03-08T14:59:57.863Z,23.55
2023-03-08T15:03:58.013Z,23.55
2023-03-08T15:07:58.033Z,23.54
2023-03-08T15:11:58.110Z,23.54
2023-03-08T15:15:58.250Z,23.54
2023-03-08T15:19:58.240Z,23.54
2023-03-08T15:23:58.329Z,23.51
2023-03-08T15:27:58.404Z,23.54
2023-03-08T15:31:58.486Z,23.54
2023-03-08T15:35:58.608Z,23.54
2023-03-08T15:39:58.642Z,23.51
2023-03-08T15:43:58.742Z,23.51
2023-03-08T15:47:58.833Z,23.52
2023-03-08T15:51:59.001Z,23.49
2023-03-08T15:55:59.022Z,23.51
2023-03-08T15:59:59.115Z,23.52
2023-03-08T16:03:59.194Z,23.52
2023-03-08T16:07:59.256Z,23.57
2023-03-08T16:11:59.365Z,23.54
2023-03-08T16:15:59.439Z,23.54
2023-03-08T16:19:59.484Z,23.55
2023-03-08T16:23:59.654Z,23.55
2023-03-08T16:27:59.662Z,23.52
2023-03-08T16:31:59.848Z,23.54
2023-03-08T16:35:59.841Z,23.52
2023-03-08T16:39:59.895Z,23.52
2023-03-08T16:43:59.962Z,23.52
2023-03-08T16:48:00.036Z,23.51
2023-03-08T16:52:00.142Z,23.51
2023-03-08T16:56:00.273Z,23.48
2023-03-08T17:00:00.246Z,23.48
2023-03-08T17:04:00.316Z,23.48
2023-03-08T17:08:00.431Z,23.48
2023-03-08T17:12:00.521Z,23.47
2023-03-08T17:16:00.652Z,23.48
2023-03-08T17:20:00.726Z,23.47
2023-03-08T17:24:00.747Z,23.47
2023-03-08T17:28:00.773Z,23.47
2023-03-08T17:32:00.937Z,23.37
2023-03-08T17:36:01.202Z,23.31
2023-03-08T17:40:01.212Z,23.32
2023-03-08T17:44:01.359Z,23.31
2023-03-08T17:48:01.432Z,23.34
2023-03-08T17:52:01.570Z,23.38
2023-03-08T17:56:01.680Z,23.37
2023-03-08T18:00:01.828Z,23.40
2023-03-08T18:04:01.976Z,23.37
2023-03-08T18:08:02.036Z,23.37
2023-03-08T18:12:02.121Z,23.37
2023-03-08T18:16:02.305Z,23.37
2023-03-08T18:20:02.372Z,23.34
2023-03-08T18:24:02.484Z,23.34
2023-03-08T18:28:02.652Z,23.34
2023-03-08T18:32:02.787Z,23.34
2023-03-08T18:36:02.900Z,23.31
2023-03-08T18:40:03.027Z,23.30
2023-03-08T18:44:03.144Z,23.28
2023-03-08T18:48:03.338Z,23.30
2023-03-08T18:52:03.453Z,23.27
2023-03-08T18:56:03.652Z,23.25
2023-03-08T19:00:03.788Z,23.23
2023-03-08T19:04:04.064Z,23.25
2023-03-08T19:08:04.085Z,23.18
2023-03-08T19:12:04.257Z,23.21
2023-03-08T19:16:04.461Z,23.21
2023-03-08T19:20:04.597Z,23.21
2023-03-08T19:24:04.767Z,23.17
2023-03-08T19:28:04.925Z,23.20
2023-03-08T19:32:05.107Z,23.17
2023-03-08T19:36:05.306Z,23.17
2023-03-08T19:40:05.422Z,23.17
2023-03-08T19:44:05.608Z,23.15
2023-03-08T19:48:05.761Z,23.14
2023-03-08T19:52:05.992Z,23.14
2023-03-08T19:56:06.121Z,23.13
2023-03-08T20:00:06.332Z,23.11
2023-03-08T20:04:06.485Z,23.10
2023-03-08T20:08:06.694Z,23.07
2023-03-08T20:12:06.874Z,23.07
2023-03-08T20:16:07.028Z,23.07
2023-03-08T20:20:07.239Z,23.07
2023-03-08T20:24:07.444Z,23.07
2023-03-08T20:28:07.623Z,23.06
2023-03-08T20:32:07.933Z,23.04
2023-03-08T20:36:08.028Z,23.04
2023-03-08T20:40:08.253Z,23.03
2023-03-08T20:44:08.438Z,23.06
2023-03-08T20:48:08.662Z,23.04
2023-03-08T20:52:08.839Z,23.06
2023-03-08T20:56:09.163Z,23.04
2023-03-08T21:00:09.247Z,23.02
2023-03-08T21:04:09.477Z,23.02
2023-03-08T21:08:09.660Z,23.03
2023-03-08T21:12:09.868Z,23.00
2023-03-08T21:16:10.145Z,22.99
2023-03-08T21:20:10.335Z,22.99
2023-03-08T21:24:10.288Z,22.97
2023-03-08T21:28:10.217Z,22.97
2023-03-08T21:32:10.270Z,22.99
2023-03-08T21:36:10.230Z,22.99
2023-03-08T21:40:10.141Z,22.99
2023-03-08T21:44:10.104Z,23.00
2023-03-08T21:48:10.074Z,22.95
2023-03-08T21:52:10.003Z,22.97
2023-03-08T21:56:10.002Z,22.95
2023-03-08T22:00:09.947Z,22.96
2023-03-08T22:04:10.156Z,22.95
2023-03-08T22:08:10.097Z,22.96
2023-03-08T22:12:10.084Z,22.93
2023-03-08T22:16:10.231Z,22.93
2023-03-08T22:20:10.021Z,22.93
2023-03-08T22:24:09.980Z,22.95
2023-03-08T22:28:10.105Z,22.93
2023-03-08T22:32:09.909Z,22.93
2023-03-08T22:36:09.836Z,22.95
2023-03-08T22:40:09.836Z,22.92
2023-03-08T22:44:09.872Z,22.92
2023-03-08T22:48:09.846Z,22.90
2023-03-08T22:52:09.804Z,22.93
2023-03-08T22:56:09.752Z,22.90
2023-03-08T23:00:09.748Z,22.89
2023-03-08T23:04:09.697Z,22.90
2023-03-08T23:08:09.655Z,22.90
2023-03-08T23:12:09.619Z,22.90
2023-03-08T23:16:09.660Z,22.86
2023-03-08T23:20:09.546Z,22.92
2023-03-08T23:24:09.744Z,22.89
2023-03-08T23:28:09.690Z,22.92
2023-03-08T23:32:09.706Z,22.89
2023-03-08T23:36:09.684Z,22.90
2023-03-08T23:40:09.567Z,22.89
2023-03-08T23:44:09.542Z,22.89
2023-03-08T23:48:09.504Z,22.89
2023-03-08T23:52:09.489Z,22.86
2023-03-08T23:56:09.478Z,22.89
